Quick Links (Output Below):   Max & Min Temps   /   Climate Reports   /   Zone Forecasts
River Forecasts   /   Forestry Forecasts   /   Aviation Forecasts   /   Radars   /   Features

Terminal Aerodrome Forecast (Little Rock)

Pick a Site:
Arkadelphia | El Dorado | Fayetteville | Fort Smith | Harrison | Highfill | Hot Springs | Jonesboro
Little Rock | Monticello | Mountain Home | Pine Bluff | Texarkana
 Forecast 

KLIT 051135Z 0512/0612 00000KT P6SM SKC
     FM051500 14007KT P6SM SCT050
     FM060000 15003KT P6SM SCT250=


 Latest METARs (Observations) 
How to Decode METARs
12Z KLIT 051153Z 00000KT 6SM BR CLR 23/21 A3004 RMK AO2 SLP171
         T02330211 10261 20228 53013
         
11Z KLIT 051053Z 00000KT 7SM CLR 23/21 A3002 RMK AO2 SLP165
         T02330211
         
10Z KLIT 050953Z COR 00000KT 7SM CLR 24/22 A3001 RMK AO2 SLP161
         T02390217
         
09Z KLIT 050853Z 04003KT 10SM CLR 24/21 A3000 RMK AO2 SLP157 T02390211
         50000
         
08Z KLIT 050753Z 00000KT 10SM CLR 24/21 A3000 RMK AO2 SLP156
         T02440211
         
07Z KLIT 050653Z 00000KT 10SM CLR 26/22 A3000 RMK AO2 SLP158
         T02560217
         
06Z KLIT 050553Z 05004KT 10SM CLR 26/21 A3000 RMK AO2 SLP157 T02610211
         10333 20256 403670228 51004
         
05Z KLIT 050453Z 00000KT 10SM CLR 27/21 A3000 RMK AO2 SLP157
         T02720206
         
04Z KLIT 050353Z 00000KT 10SM CLR 28/20 A3000 RMK AO2 SLP157
         T02780200
         
03Z KLIT 050253Z 05008KT 10SM FEW250 28/20 A2999 RMK AO2 SLP153
         T02780200 53013
         
***** Today's Observations (Above) *****


Back to Main Page
http://www.srh.noaa.gov/lzk/qfcst.php

USA.gov is the U.S. government's official web portal to all federal, state and local government web resources and services.